createdAt,value
2023-09-16T00:00:35.974Z,13.31
2023-09-16T00:03:03.886Z,13.38
2023-09-16T00:05:31.254Z,13.44
2023-09-16T00:07:57.796Z,13.34
2023-09-16T00:10:24.395Z,12.61
2023-09-16T00:12:51.084Z,11.95
2023-09-16T00:15:17.733Z,12.21
2023-09-16T00:17:47.359Z,12.58
2023-09-16T00:20:16.811Z,12.85
2023-09-16T00:22:44.681Z,13.03
2023-09-16T00:25:12.162Z,13.13
2023-09-16T00:27:42.308Z,13.19
2023-09-16T00:30:09.625Z,13.11
2023-09-16T00:32:36.449Z,12.39
2023-09-16T00:35:05.049Z,11.58
2023-09-16T00:37:32.838Z,11.08
2023-09-16T00:39:59.497Z,11.47
2023-09-16T00:42:26.437Z,11.95
2023-09-16T00:44:53.119Z,12.27
2023-09-16T00:47:19.814Z,12.47
2023-09-16T00:49:47.396Z,12.60
2023-09-16T00:52:14.448Z,12.70
2023-09-16T00:54:41.373Z,12.82
2023-09-16T00:57:12.784Z,12.92
2023-09-16T00:59:40.190Z,13.03
2023-09-16T01:02:09.573Z,13.12
2023-09-16T01:04:38.210Z,13.18
2023-09-16T01:07:06.698Z,13.21
2023-09-16T01:09:33.704Z,13.26
2023-09-16T01:12:00.756Z,13.30
2023-09-16T01:14:27.671Z,13.23
2023-09-16T01:17:00.251Z,12.52
2023-09-16T01:19:42.317Z,11.85
2023-09-16T01:22:10.660Z,12.06
2023-09-16T01:24:37.551Z,12.40
2023-09-16T01:27:04.248Z,12.61
2023-09-16T01:29:30.992Z,12.76
2023-09-16T01:32:02.554Z,12.87
2023-09-16T01:34:38.197Z,12.94
2023-09-16T01:37:07.769Z,12.98
2023-09-16T01:39:36.882Z,13.01
2023-09-16T01:42:04.405Z,13.05
2023-09-16T01:44:31.201Z,13.11
2023-09-16T01:46:57.838Z,13.17
2023-09-16T01:49:24.660Z,13.23
2023-09-16T01:51:51.602Z,13.17
2023-09-16T01:54:18.298Z,12.45
2023-09-16T01:56:46.419Z,11.67
2023-09-16T01:59:13.024Z,11.20
2023-09-16T02:01:39.618Z,11.56
2023-09-16T02:04:07.287Z,12.00
2023-09-16T02:06:34.425Z,12.30
2023-09-16T02:09:01.241Z,12.48
2023-09-16T02:11:27.840Z,12.60
2023-09-16T02:14:00.124Z,12.68
2023-09-16T02:16:57.888Z,12.74
2023-09-16T02:19:25.000Z,12.81
2023-09-16T02:21:51.588Z,12.92
2023-09-16T02:24:18.264Z,13.00
2023-09-16T02:26:45.751Z,13.07
2023-09-16T02:29:12.298Z,13.11
2023-09-16T02:31:38.998Z,13.15
2023-09-16T02:34:05.754Z,13.15
2023-09-16T02:36:32.489Z,13.20
2023-09-16T02:38:59.083Z,13.19
2023-09-16T02:41:25.798Z,13.14
2023-09-16T02:43:52.402Z,13.13
2023-09-16T02:46:19.450Z,13.11
2023-09-16T02:48:46.276Z,13.12
2023-09-16T02:51:12.907Z,13.14
2023-09-16T02:53:40.174Z,13.14
2023-09-16T02:56:09.697Z,13.14
2023-09-16T02:58:37.307Z,13.11
2023-09-16T03:01:11.511Z,13.11
2023-09-16T03:03:41.306Z,13.14
2023-09-16T03:06:08.740Z,13.18
2023-09-16T03:08:35.351Z,13.20
2023-09-16T03:11:06.512Z,13.24
2023-09-16T03:13:34.706Z,13.23
2023-09-16T03:16:22.013Z,13.23
2023-09-16T03:18:53.244Z,13.22
2023-09-16T03:21:23.914Z,13.24
2023-09-16T03:23:52.375Z,13.24
2023-09-16T03:26:19.446Z,13.25
2023-09-16T03:28:49.242Z,13.26
2023-09-16T03:31:18.895Z,13.26
2023-09-16T03:33:45.879Z,13.25
2023-09-16T03:36:13.120Z,13.25
2023-09-16T03:38:51.500Z,13.26
2023-09-16T03:41:18.877Z,13.28
2023-09-16T03:43:52.182Z,13.32
2023-09-16T03:46:19.446Z,13.31
2023-09-16T03:48:46.555Z,13.32
2023-09-16T03:51:13.974Z,13.36
2023-09-16T03:53:41.401Z,13.37
2023-09-16T03:56:10.113Z,13.39
2023-09-16T03:58:37.959Z,13.40
2023-09-16T04:01:05.325Z,13.40
2023-09-16T04:03:32.685Z,13.38
2023-09-16T04:06:00.224Z,13.40
2023-09-16T04:08:32.846Z,13.46
2023-09-16T04:11:07.953Z,13.48
2023-09-16T04:13:34.731Z,13.49
2023-09-16T04:16:01.341Z,13.49
2023-09-16T04:18:28.098Z,13.48
2023-09-16T04:20:56.692Z,13.46
2023-09-16T04:23:24.422Z,13.41
2023-09-16T04:25:58.877Z,13.37
2023-09-16T04:28:25.991Z,13.35
2023-09-16T04:30:54.508Z,13.32
2023-09-16T04:33:23.012Z,13.34
2023-09-16T04:35:51.835Z,13.34
2023-09-16T04:38:20.112Z,13.36
2023-09-16T04:40:49.230Z,13.40
2023-09-16T04:43:16.566Z,13.44
2023-09-16T04:45:50.698Z,13.51
2023-09-16T04:48:28.768Z,13.58
2023-09-16T04:50:55.567Z,13.70
2023-09-16T04:53:22.135Z,13.82
2023-09-16T04:55:48.747Z,13.97
2023-09-16T04:58:15.572Z,14.10
2023-09-16T05:00:43.405Z,14.17
2023-09-16T05:03:10.194Z,14.26
2023-09-16T05:05:37.129Z,14.36
2023-09-16T05:08:05.239Z,14.46
2023-09-16T05:10:33.015Z,14.64
2023-09-16T05:13:00.606Z,14.86
2023-09-16T05:15:28.726Z,15.10
2023-09-16T05:17:55.502Z,15.36
2023-09-16T05:20:22.503Z,15.56
2023-09-16T05:22:49.849Z,15.76
2023-09-16T05:25:17.627Z,15.99
2023-09-16T05:27:44.629Z,16.23
2023-09-16T05:30:11.848Z,16.42
2023-09-16T05:32:38.831Z,16.59
2023-09-16T05:35:05.886Z,16.75
2023-09-16T05:37:32.478Z,16.85
2023-09-16T05:39:59.071Z,16.93
2023-09-16T05:42:25.957Z,17.07
2023-09-16T05:44:52.563Z,17.39
2023-09-16T05:47:19.894Z,17.86
2023-09-16T05:49:46.758Z,18.80
2023-09-16T05:52:14.344Z,19.61
2023-09-16T05:54:41.153Z,20.52
2023-09-16T05:57:07.903Z,21.57
2023-09-16T05:59:34.820Z,22.51
2023-09-16T06:02:02.815Z,23.37
2023-09-16T06:04:32.031Z,24.27
2023-09-16T06:06:58.801Z,25.07
2023-09-16T06:09:28.318Z,25.87
2023-09-16T06:11:54.923Z,26.41
2023-09-16T06:14:22.528Z,26.93
2023-09-16T06:16:49.190Z,27.55
2023-09-16T06:19:15.947Z,27.99
2023-09-16T06:21:42.888Z,28.34
2023-09-16T06:24:09.657Z,28.84
2023-09-16T06:26:36.229Z,29.41
2023-09-16T06:29:03.343Z,29.98
2023-09-16T06:31:30.016Z,30.19
2023-09-16T06:33:57.838Z,30.52
2023-09-16T06:36:26.348Z,31.13
2023-09-16T06:38:52.930Z,31.42
2023-09-16T06:41:20.385Z,31.21
2023-09-16T06:43:47.101Z,31.02
2023-09-16T06:46:19.257Z,31.06
2023-09-16T06:48:46.574Z,31.14
2023-09-16T06:51:13.213Z,31.44
2023-09-16T06:53:39.752Z,31.83
2023-09-16T06:56:06.357Z,32.15
2023-09-16T06:58:32.912Z,32.65
2023-09-16T07:00:59.523Z,33.24
2023-09-16T07:03:26.248Z,33.62
2023-09-16T07:05:53.044Z,33.95
2023-09-16T07:08:21.177Z,34.36
2023-09-16T07:10:47.875Z,34.92
2023-09-16T07:13:14.534Z,35.32
2023-09-16T07:15:41.404Z,35.60
2023-09-16T07:18:08.137Z,35.90
2023-09-16T07:20:36.931Z,36.16
2023-09-16T07:23:06.945Z,36.57
2023-09-16T07:25:33.857Z,36.99
2023-09-16T07:28:02.050Z,37.31
2023-09-16T07:30:28.669Z,37.44
2023-09-16T07:32:55.239Z,37.56
2023-09-16T07:35:21.903Z,37.70
2023-09-16T07:37:48.549Z,37.78
2023-09-16T07:40:15.256Z,37.76
2023-09-16T07:42:43.105Z,37.98
2023-09-16T07:45:10.515Z,38.28
2023-09-16T07:47:37.257Z,38.35
2023-09-16T07:50:04.269Z,38.31
2023-09-16T07:52:33.776Z,38.06
2023-09-16T07:55:00.854Z,37.97
2023-09-16T07:57:29.510Z,37.74
2023-09-16T07:59:56.187Z,36.95
2023-09-16T08:02:22.813Z,36.19
2023-09-16T08:04:49.539Z,35.79
2023-09-16T08:07:16.459Z,35.08
2023-09-16T08:09:43.291Z,34.88
2023-09-16T08:12:10.353Z,35.07
2023-09-16T08:14:36.989Z,35.18
2023-09-16T08:17:04.818Z,35.39
2023-09-16T08:19:32.465Z,35.94
2023-09-16T08:21:59.343Z,36.36
2023-09-16T08:24:26.360Z,36.52
2023-09-16T08:26:53.382Z,36.33
2023-09-16T08:29:19.956Z,35.60
2023-09-16T08:31:46.606Z,35.10
2023-09-16T08:34:13.278Z,35.00
2023-09-16T08:36:39.840Z,34.40
2023-09-16T08:39:06.428Z,33.89
2023-09-16T08:42:00.211Z,33.42
2023-09-16T08:44:30.052Z,33.73
2023-09-16T08:47:02.541Z,34.03
2023-09-16T08:49:31.705Z,34.40
2023-09-16T08:52:01.618Z,34.43
2023-09-16T08:54:31.318Z,34.30
2023-09-16T08:56:59.210Z,34.49
2023-09-16T08:59:26.801Z,34.79
2023-09-16T09:01:53.562Z,35.24
2023-09-16T09:04:20.661Z,35.70
2023-09-16T09:06:49.298Z,36.04
2023-09-16T09:09:15.910Z,35.93
2023-09-16T09:11:44.637Z,35.81
2023-09-16T09:14:14.815Z,36.00
2023-09-16T09:16:45.382Z,35.96
2023-09-16T09:19:12.979Z,34.82
2023-09-16T09:21:41.711Z,34.65
2023-09-16T09:24:08.293Z,34.50
2023-09-16T09:26:35.537Z,34.29
2023-09-16T09:29:02.197Z,34.59
2023-09-16T09:31:31.562Z,34.58
2023-09-16T09:33:58.325Z,34.10
2023-09-16T09:36:25.936Z,33.89
2023-09-16T09:38:52.669Z,33.24
2023-09-16T09:41:20.352Z,32.95
2023-09-16T09:43:47.029Z,32.82
2023-09-16T09:46:14.042Z,33.02
2023-09-16T09:48:41.162Z,33.67
2023-09-16T09:51:10.060Z,34.35
2023-09-16T09:53:38.120Z,34.59
2023-09-16T09:56:04.841Z,34.86
2023-09-16T09:58:33.080Z,34.88
2023-09-16T10:01:00.175Z,35.02
2023-09-16T10:03:28.414Z,35.57
2023-09-16T10:05:59.105Z,36.04
2023-09-16T10:08:28.301Z,36.72
2023-09-16T10:10:56.062Z,36.99
2023-09-16T10:13:23.339Z,36.62
2023-09-16T10:15:50.406Z,35.39
2023-09-16T10:18:19.433Z,34.53
2023-09-16T10:20:47.893Z,34.78
2023-09-16T10:23:15.063Z,35.02
2023-09-16T10:25:42.202Z,34.75
2023-09-16T10:28:09.797Z,34.82
2023-09-16T10:30:38.353Z,34.45
2023-09-16T10:33:10.285Z,34.04
2023-09-16T10:35:42.397Z,34.21
2023-09-16T10:38:12.141Z,34.79
2023-09-16T10:40:39.790Z,35.20
2023-09-16T10:43:07.827Z,35.42
2023-09-16T10:45:34.892Z,35.95
2023-09-16T10:48:03.209Z,35.89
2023-09-16T10:50:36.037Z,36.09
2023-09-16T10:53:04.037Z,35.62
2023-09-16T10:55:39.721Z,35.33
2023-09-16T10:58:32.731Z,34.87
2023-09-16T11:01:01.588Z,35.21
2023-09-16T11:03:32.605Z,35.81
2023-09-16T11:06:01.024Z,36.39
2023-09-16T11:08:28.194Z,36.93
2023-09-16T11:10:57.116Z,37.30
2023-09-16T11:13:25.714Z,36.37
2023-09-16T11:15:52.695Z,35.50
2023-09-16T11:18:19.864Z,34.79
2023-09-16T11:20:47.287Z,34.31
2023-09-16T11:23:13.984Z,34.47
2023-09-16T11:25:44.894Z,34.93
2023-09-16T11:28:23.988Z,35.60
2023-09-16T11:30:58.885Z,35.80
2023-09-16T11:33:32.735Z,35.04
2023-09-16T11:36:14.649Z,34.00
2023-09-16T11:39:13.226Z,33.21
2023-09-16T11:41:39.827Z,32.79
2023-09-16T11:44:07.695Z,32.84
2023-09-16T11:46:35.429Z,33.08
2023-09-16T11:49:07.247Z,32.89
2023-09-16T11:51:36.962Z,32.93
2023-09-16T11:54:04.902Z,33.24
2023-09-16T11:56:35.860Z,33.46
2023-09-16T11:59:05.454Z,33.72
2023-09-16T12:01:36.114Z,34.01
2023-09-16T12:04:06.117Z,34.33
2023-09-16T12:06:36.949Z,34.57
2023-09-16T12:09:05.968Z,34.46
2023-09-16T12:11:33.597Z,34.05
2023-09-16T12:14:01.792Z,34.04
2023-09-16T12:16:29.118Z,33.71
2023-09-16T12:18:56.962Z,33.23
2023-09-16T12:21:24.425Z,33.06
2023-09-16T12:23:53.072Z,33.31
2023-09-16T12:26:20.727Z,33.72
2023-09-16T12:28:48.387Z,34.00
2023-09-16T12:31:21.926Z,34.16
2023-09-16T12:33:52.329Z,34.35
2023-09-16T12:36:27.595Z,34.31
2023-09-16T12:38:56.178Z,33.49
2023-09-16T12:41:26.609Z,32.27
2023-09-16T12:43:55.875Z,31.69
2023-09-16T12:46:24.028Z,31.50
2023-09-16T12:48:53.250Z,31.60
2023-09-16T12:51:21.077Z,31.67
2023-09-16T12:53:51.547Z,31.73
2023-09-16T12:56:21.540Z,31.83
2023-09-16T12:58:51.407Z,32.04
2023-09-16T13:01:20.913Z,32.27
2023-09-16T13:03:47.959Z,32.29
2023-09-16T13:06:15.093Z,32.29
2023-09-16T13:08:42.481Z,32.31
2023-09-16T13:11:10.649Z,32.18
2023-09-16T13:13:37.491Z,31.66
2023-09-16T13:16:04.883Z,30.95
2023-09-16T13:18:31.661Z,30.69
2023-09-16T13:20:58.566Z,30.70
2023-09-16T13:23:29.721Z,30.86
2023-09-16T13:26:10.170Z,30.87
2023-09-16T13:28:37.036Z,30.69
2023-09-16T13:31:04.017Z,30.60
2023-09-16T13:33:58.176Z,30.44
2023-09-16T13:36:26.209Z,30.21
2023-09-16T13:38:53.101Z,29.74
2023-09-16T13:41:22.202Z,29.49
2023-09-16T13:43:48.911Z,29.40
2023-09-16T13:46:15.589Z,29.42
2023-09-16T13:48:42.346Z,29.47
2023-09-16T13:51:08.898Z,29.54
2023-09-16T13:53:35.481Z,29.60
2023-09-16T13:56:03.345Z,29.54
2023-09-16T13:58:29.983Z,29.43
2023-09-16T14:00:56.742Z,29.47
2023-09-16T14:03:23.550Z,29.48
2023-09-16T14:05:50.426Z,29.39
2023-09-16T14:08:17.042Z,29.28
2023-09-16T14:10:43.640Z,29.02
2023-09-16T14:13:10.323Z,28.87
2023-09-16T14:15:39.397Z,28.67
2023-09-16T14:18:07.964Z,28.49
2023-09-16T14:20:35.593Z,28.45
2023-09-16T14:23:04.956Z,28.38
2023-09-16T14:25:34.028Z,28.24
2023-09-16T14:28:01.979Z,28.18
2023-09-16T14:30:28.592Z,28.12
2023-09-16T14:32:55.288Z,28.02
2023-09-16T14:35:22.035Z,27.93
2023-09-16T14:37:51.526Z,27.80
2023-09-16T14:40:18.212Z,27.70
2023-09-16T14:42:45.381Z,27.58
2023-09-16T14:45:11.951Z,27.43
2023-09-16T14:47:38.573Z,27.29
2023-09-16T14:50:05.750Z,27.12
2023-09-16T14:52:32.657Z,26.98
2023-09-16T14:54:59.771Z,26.87
2023-09-16T14:57:26.753Z,26.77
2023-09-16T14:59:53.291Z,26.64
2023-09-16T15:02:19.928Z,26.51
2023-09-16T15:04:47.635Z,26.34
2023-09-16T15:07:14.419Z,26.10
2023-09-16T15:09:41.022Z,25.86
2023-09-16T15:12:07.988Z,25.65
2023-09-16T15:14:34.525Z,25.38
2023-09-16T15:17:01.220Z,25.13
2023-09-16T15:19:30.233Z,24.96
2023-09-16T15:21:57.094Z,24.84
2023-09-16T15:24:23.695Z,24.73
2023-09-16T15:26:52.745Z,24.61
2023-09-16T15:29:19.321Z,24.44
2023-09-16T15:31:46.542Z,24.27
2023-09-16T15:34:13.279Z,24.10
2023-09-16T15:36:39.892Z,23.94
2023-09-16T15:39:06.497Z,23.80
2023-09-16T15:41:33.707Z,23.67
2023-09-16T15:44:00.265Z,23.47
2023-09-16T15:46:27.326Z,23.27
2023-09-16T15:48:53.948Z,23.09
2023-09-16T15:51:20.695Z,22.96
2023-09-16T15:53:47.395Z,22.82
2023-09-16T15:56:14.162Z,22.65
2023-09-16T15:58:42.770Z,22.46
2023-09-16T16:01:13.545Z,22.29
2023-09-16T16:03:41.879Z,22.12
2023-09-16T16:06:09.760Z,21.98
2023-09-16T16:08:36.535Z,21.84
2023-09-16T16:11:03.100Z,21.69
2023-09-16T16:13:29.691Z,21.54
2023-09-16T16:15:56.421Z,21.42
2023-09-16T16:18:23.293Z,21.31
2023-09-16T16:20:50.177Z,21.20
2023-09-16T16:23:16.725Z,21.08
2023-09-16T16:25:45.750Z,20.97
2023-09-16T16:28:13.225Z,20.87
2023-09-16T16:30:40.881Z,20.74
2023-09-16T16:33:07.833Z,20.62
2023-09-16T16:35:34.511Z,20.50
2023-09-16T16:38:01.060Z,20.38
2023-09-16T16:40:27.978Z,20.26
2023-09-16T16:42:54.647Z,20.15
2023-09-16T16:45:21.275Z,20.06
2023-09-16T16:47:48.899Z,19.97
2023-09-16T16:50:17.764Z,19.89
2023-09-16T16:52:45.308Z,19.81
2023-09-16T16:55:12.069Z,19.71
2023-09-16T16:57:38.691Z,19.59
2023-09-16T17:00:07.388Z,19.47
2023-09-16T17:02:34.967Z,19.37
2023-09-16T17:05:01.841Z,19.25
2023-09-16T17:07:28.623Z,19.16
2023-09-16T17:09:58.622Z,19.05
2023-09-16T17:12:25.751Z,18.93
2023-09-16T17:14:52.363Z,18.81
2023-09-16T17:17:21.212Z,18.70
2023-09-16T17:19:49.395Z,18.59
2023-09-16T17:22:18.929Z,18.48
2023-09-16T17:24:46.349Z,18.38
2023-09-16T17:27:12.989Z,18.27
2023-09-16T17:29:39.790Z,18.17
2023-09-16T17:32:06.650Z,18.07
2023-09-16T17:34:33.298Z,17.98
2023-09-16T17:37:00.638Z,17.90
2023-09-16T17:39:27.289Z,17.83
2023-09-16T17:41:54.990Z,17.79
2023-09-16T17:44:22.088Z,17.73
2023-09-16T17:46:48.722Z,17.70
2023-09-16T17:49:15.822Z,17.69
2023-09-16T17:51:43.568Z,17.65
2023-09-16T17:54:10.601Z,17.80
2023-09-16T17:56:37.617Z,18.59
2023-09-16T17:59:07.093Z,19.30
2023-09-16T18:01:34.003Z,19.19
2023-09-16T18:04:01.394Z,18.80
2023-09-16T18:06:28.092Z,18.49
2023-09-16T18:08:54.664Z,18.27
2023-09-16T18:11:21.666Z,18.09
2023-09-16T18:13:48.758Z,17.95
2023-09-16T18:16:15.666Z,17.82
2023-09-16T18:18:43.015Z,17.69
2023-09-16T18:21:11.106Z,17.72
2023-09-16T18:23:37.725Z,18.42
2023-09-16T18:26:05.621Z,19.18
2023-09-16T18:28:32.558Z,19.61
2023-09-16T18:30:59.638Z,19.25
2023-09-16T18:33:28.648Z,18.72
2023-09-16T18:35:55.772Z,18.36
2023-09-16T18:38:22.570Z,18.13
2023-09-16T18:40:50.754Z,18.04
2023-09-16T18:43:18.321Z,18.51
2023-09-16T18:45:48.064Z,19.26
2023-09-16T18:48:16.093Z,19.61
2023-09-16T18:50:43.428Z,19.16
2023-09-16T18:53:11.241Z,18.61
2023-09-16T18:55:41.996Z,18.21
2023-09-16T18:58:08.827Z,18.49
2023-09-16T19:00:35.505Z,19.15
2023-09-16T19:03:02.426Z,19.73
2023-09-16T19:05:30.857Z,19.43
2023-09-16T19:07:57.390Z,18.75
2023-09-16T19:10:26.175Z,18.26
2023-09-16T19:12:52.793Z,18.31
2023-09-16T19:15:19.356Z,19.05
2023-09-16T19:17:46.352Z,19.61
2023-09-16T19:20:13.022Z,19.38
2023-09-16T19:22:39.614Z,18.70
2023-09-16T19:25:08.886Z,18.27
2023-09-16T19:27:37.844Z,18.68
2023-09-16T19:30:04.771Z,19.28
2023-09-16T19:32:31.408Z,19.67
2023-09-16T19:34:59.295Z,19.16
2023-09-16T19:37:28.370Z,18.48
2023-09-16T19:39:55.661Z,18.27
2023-09-16T19:42:23.130Z,18.86
2023-09-16T19:44:49.736Z,19.30
2023-09-16T19:47:18.951Z,19.73
2023-09-16T19:49:45.667Z,19.28
2023-09-16T19:52:12.269Z,18.51
2023-09-16T19:54:39.293Z,18.44
2023-09-16T19:57:05.936Z,19.07
2023-09-16T19:59:32.547Z,19.46
2023-09-16T20:02:00.114Z,19.63
2023-09-16T20:04:28.096Z,19.15
2023-09-16T20:06:57.137Z,18.38
2023-09-16T20:09:23.704Z,18.06
2023-09-16T20:11:50.348Z,18.62
2023-09-16T20:14:16.893Z,19.14
2023-09-16T20:16:43.633Z,19.53
2023-09-16T20:19:10.344Z,19.51
2023-09-16T20:21:37.074Z,18.78
2023-09-16T20:24:03.807Z,18.04
2023-09-16T20:26:30.621Z,18.18
2023-09-16T20:28:57.191Z,18.64
2023-09-16T20:31:24.067Z,18.95
2023-09-16T20:34:04.517Z,19.19
2023-09-16T20:36:35.538Z,19.41
2023-09-16T20:39:04.480Z,19.41
2023-09-16T20:41:31.723Z,18.77
2023-09-16T20:44:01.843Z,18.09
2023-09-16T20:46:29.245Z,18.17
2023-09-16T20:48:56.013Z,18.61
2023-09-16T20:51:23.014Z,18.89
2023-09-16T20:53:50.142Z,19.25
2023-09-16T20:56:17.312Z,19.42
2023-09-16T20:58:44.188Z,18.78
2023-09-16T21:01:11.398Z,17.94
2023-09-16T21:03:38.575Z,17.80
2023-09-16T21:06:05.325Z,18.28
2023-09-16T21:08:31.947Z,18.68
2023-09-16T21:10:58.574Z,18.84
2023-09-16T21:13:25.286Z,19.06
2023-09-16T21:15:52.748Z,19.17
2023-09-16T21:18:19.722Z,19.32
2023-09-16T21:20:46.346Z,18.59
2023-09-16T21:23:12.996Z,17.91
2023-09-16T21:25:40.800Z,18.13
2023-09-16T21:28:08.006Z,18.43
2023-09-16T21:30:35.212Z,18.67
2023-09-16T21:33:02.907Z,18.94
2023-09-16T21:35:30.325Z,19.02
2023-09-16T21:37:57.337Z,18.98
2023-09-16T21:40:26.210Z,19.11
2023-09-16T21:42:54.150Z,19.10
2023-09-16T21:45:21.236Z,19.08
2023-09-16T21:47:48.160Z,18.92
2023-09-16T21:50:16.615Z,18.24
2023-09-16T21:52:43.571Z,17.64
2023-09-16T21:55:10.308Z,17.82
2023-09-16T21:57:37.121Z,18.15
2023-09-16T22:00:15.240Z,18.40
2023-09-16T22:02:41.885Z,18.52
2023-09-16T22:05:08.734Z,18.60
2023-09-16T22:07:35.326Z,18.70
2023-09-16T22:10:02.732Z,18.77
2023-09-16T22:12:29.327Z,18.90
2023-09-16T22:14:56.033Z,18.86
2023-09-16T22:17:22.727Z,18.86
2023-09-16T22:19:49.358Z,18.90
2023-09-16T22:22:16.134Z,18.82
2023-09-16T22:24:42.783Z,18.82
2023-09-16T22:27:09.360Z,18.91
2023-09-16T22:29:35.904Z,18.97
2023-09-16T22:32:02.556Z,18.89
2023-09-16T22:34:29.283Z,18.04
2023-09-16T22:37:00.889Z,17.34
2023-09-16T22:39:27.655Z,17.52
2023-09-16T22:41:54.171Z,17.82
2023-09-16T22:44:20.798Z,18.04
2023-09-16T22:46:47.571Z,18.18
2023-09-16T22:49:14.376Z,18.28
2023-09-16T22:51:41.313Z,18.29
2023-09-16T22:54:07.912Z,18.32
2023-09-16T22:56:35.808Z,18.30
2023-09-16T22:59:02.693Z,18.37
2023-09-16T23:01:29.594Z,18.39
2023-09-16T23:03:56.348Z,18.35
2023-09-16T23:06:23.103Z,18.35
2023-09-16T23:08:49.768Z,18.26
2023-09-16T23:11:16.335Z,18.34
2023-09-16T23:13:42.930Z,18.29
2023-09-16T23:16:09.796Z,18.27
2023-09-16T23:18:36.556Z,18.28
2023-09-16T23:21:04.029Z,18.16
2023-09-16T23:23:30.631Z,18.12
2023-09-16T23:25:57.186Z,18.10
2023-09-16T23:28:23.812Z,18.10
2023-09-16T23:30:50.803Z,18.03
2023-09-16T23:33:19.226Z,17.99
2023-09-16T23:35:45.840Z,18.00
2023-09-16T23:38:13.397Z,17.99
2023-09-16T23:40:42.251Z,17.98
2023-09-16T23:43:08.984Z,17.98
2023-09-16T23:45:36.964Z,17.91
2023-09-16T23:48:06.918Z,17.86
2023-09-16T23:50:33.656Z,17.83
2023-09-16T23:53:00.438Z,17.71
2023-09-16T23:55:27.547Z,17.82
2023-09-16T23:57:54.345Z,17.81
